Time;durP1;ratioP1;P1;durP2;ratioP2;P2;SDS_P1;SDS_P2;PMS_P1;PMS_P2;Temp;Humidity;BMP_temperature;BMP_pressure;BME280_temperature;BME280_humidity;BME280_pressure;Samples;Min_cycle;Max_cycle;Signal;HPM_P1;HPM_P2
2023/05/11 00:00:28;;;;;;;5.07;4.50;;;;;;;;;;5049799;28;20044;-76
2023/05/11 00:02:54;;;;;;;5.70;4.82;;;;;;;;;;5039403;28;20484;-76
2023/05/11 00:05:20;;;;;;;5.10;4.60;;;;;;;;;;5029915;28;20045;-76
2023/05/11 00:07:46;;;;;;;6.10;4.60;;;;;;;;;;5035592;28;20041;-76
2023/05/11 00:10:12;;;;;;;7.93;5.90;;;;;;;;;;5034123;28;20412;-76
2023/05/11 00:12:38;;;;;;;5.63;4.85;;;;;;;;;;5034933;28;20496;-76
2023/05/11 00:15:05;;;;;;;6.93;5.85;;;;;;;;;;5041890;28;20072;-75
2023/05/11 00:17:31;;;;;;;6.97;6.00;;;;;;;;;;5033342;28;20042;-77
2023/05/11 00:19:57;;;;;;;5.82;5.18;;;;;;;;;;5038100;28;20041;-76
2023/05/11 00:22:23;;;;;;;6.60;5.25;;;;;;;;;;5033139;28;20053;-76
2023/05/11 00:24:49;;;;;;;5.90;5.30;;;;;;;;;;5032412;28;20485;-76
2023/05/11 00:27:15;;;;;;;8.15;6.72;;;;;;;;;;5053478;28;20088;-77
2023/05/11 00:29:41;;;;;;;7.38;5.85;;;;;;;;;;5033638;28;20040;-75
2023/05/11 00:32:07;;;;;;;7.43;6.18;;;;;;;;;;5034021;28;20052;-75
2023/05/11 00:34:33;;;;;;;8.40;6.70;;;;;;;;;;5032284;28;20049;-75
2023/05/11 00:36:59;;;;;;;7.85;6.65;;;;;;;;;;5036411;28;20412;-75
2023/05/11 00:39:25;;;;;;;8.10;7.10;;;;;;;;;;5045583;28;20392;-75
2023/05/11 00:41:51;;;;;;;7.15;6.45;;;;;;;;;;5043825;28;20559;-76
2023/05/11 00:44:17;;;;;;;8.90;7.05;;;;;;;;;;5035280;28;20456;-75
2023/05/11 00:46:43;;;;;;;9.25;7.25;;;;;;;;;;5037968;28;20042;-75
2023/05/11 00:49:09;;;;;;;8.73;6.15;;;;;;;;;;5033234;28;20060;-75
2023/05/11 00:51:35;;;;;;;8.35;7.38;;;;;;;;;;5035639;28;20460;-76
2023/05/11 00:54:02;;;;;;;10.13;7.30;;;;;;;;;;5044352;28;20493;-76
2023/05/11 00:56:28;;;;;;;8.23;6.90;;;;;;;;;;5037162;28;20093;-76
2023/05/11 00:58:54;;;;;;;9.23;7.25;;;;;;;;;;5039399;28;20033;-76
2023/05/11 01:01:21;;;;;;;8.45;6.70;;;;;;;;;;5047583;28;20046;-76
2023/05/11 01:03:47;;;;;;;8.88;7.60;;;;;;;;;;5033277;28;20037;-76
2023/05/11 01:06:45;;;;;;;9.35;7.28;;;;;;;;;;5044825;28;20140;-75
2023/05/11 01:09:17;;;;;;;8.65;7.10;;;;;;;;;;5024075;28;20132;-75
2023/05/11 01:11:47;;;;;;;9.27;7.80;;;;;;;;;;5051639;28;20053;-76
2023/05/11 01:14:15;;;;;;;11.07;8.45;;;;;;;;;;5042631;28;20042;-76
2023/05/11 01:16:45;;;;;;;8.23;7.43;;;;;;;;;;5036278;28;20106;-76
2023/05/11 01:19:23;;;;;;;11.32;8.43;;;;;;;;;;5042109;28;20048;-76
2023/05/11 01:21:50;;;;;;;9.88;7.78;;;;;;;;;;5049960;28;20132;-76
2023/05/11 01:24:25;;;;;;;9.57;7.72;;;;;;;;;;5032488;28;21032;-76
2023/05/11 01:26:57;;;;;;;9.27;7.70;;;;;;;;;;5032278;28;20064;-76
2023/05/11 01:29:23;;;;;;;11.38;7.68;;;;;;;;;;5033429;28;20049;-77
2023/05/11 01:31:53;;;;;;;9.30;7.85;;;;;;;;;;5031364;28;20042;-76
2023/05/11 01:34:22;;;;;;;8.90;7.60;;;;;;;;;;5036012;28;20163;-76
2023/05/11 01:36:50;;;;;;;9.00;7.07;;;;;;;;;;5044726;28;20060;-75
2023/05/11 01:39:20;;;;;;;8.52;7.43;;;;;;;;;;5036884;28;20049;-76
2023/05/11 01:41:48;;;;;;;9.40;7.30;;;;;;;;;;5032925;28;20400;-76
2023/05/11 01:44:16;;;;;;;8.80;6.88;;;;;;;;;;5031756;28;20037;-76
2023/05/11 01:46:43;;;;;;;8.75;6.88;;;;;;;;;;5035250;28;20064;-76
2023/05/11 01:49:10;;;;;;;11.20;7.43;;;;;;;;;;5040480;28;20628;-76
2023/05/11 01:51:37;;;;;;;9.90;8.20;;;;;;;;;;5032985;28;20084;-76
2023/05/11 01:54:06;;;;;;;8.63;7.50;;;;;;;;;;5030338;28;20128;-77
2023/05/11 01:56:32;;;;;;;8.65;7.35;;;;;;;;;;5041159;28;20493;-77
2023/05/11 01:58:58;;;;;;;9.27;7.43;;;;;;;;;;5037784;28;20056;-76
2023/05/11 02:01:26;;;;;;;10.50;7.93;;;;;;;;;;5035819;28;20045;-77
2023/05/11 02:03:53;;;;;;;8.70;7.28;;;;;;;;;;5031205;28;20057;-77
2023/05/11 02:06:20;;;;;;;9.65;7.85;;;;;;;;;;5032307;28;20132;-77
2023/05/11 02:08:47;;;;;;;9.45;7.47;;;;;;;;;;5031340;28;20106;-76
2023/05/11 02:11:13;;;;;;;9.68;7.35;;;;;;;;;;5044246;28;20049;-76
2023/05/11 02:13:41;;;;;;;10.60;8.25;;;;;;;;;;5036146;28;20053;-76
2023/05/11 02:16:08;;;;;;;9.25;7.95;;;;;;;;;;5035158;28;20040;-75
2023/05/11 02:18:34;;;;;;;12.50;9.00;;;;;;;;;;5035142;28;20211;-76
2023/05/11 02:21:01;;;;;;;10.50;8.13;;;;;;;;;;5043773;28;20052;-76
2023/05/11 02:23:29;;;;;;;11.38;8.40;;;;;;;;;;5038444;28;20051;-75
2023/05/11 02:25:56;;;;;;;10.07;7.50;;;;;;;;;;5043689;28;20072;-76
2023/05/11 02:28:22;;;;;;;10.88;8.27;;;;;;;;;;5041470;28;20431;-77
2023/05/11 02:30:50;;;;;;;11.13;8.45;;;;;;;;;;5033582;28;20052;-76
2023/05/11 02:33:21;;;;;;;10.60;8.80;;;;;;;;;;5037177;28;20059;-76
2023/05/11 02:35:49;;;;;;;12.45;8.15;;;;;;;;;;5043324;28;20049;-76
2023/05/11 02:38:15;;;;;;;10.55;8.27;;;;;;;;;;5036054;28;20059;-76
2023/05/11 02:40:49;;;;;;;9.20;8.20;;;;;;;;;;5042165;28;20045;-76
2023/05/11 02:43:27;;;;;;;12.45;8.27;;;;;;;;;;5046815;28;20049;-75
2023/05/11 02:46:01;;;;;;;12.48;8.77;;;;;;;;;;5036458;28;20091;-76
2023/05/11 02:48:28;;;;;;;11.25;8.40;;;;;;;;;;5036456;28;20041;-76
2023/05/11 02:50:55;;;;;;;11.43;8.80;;;;;;;;;;5033838;28;20042;-76
2023/05/11 02:53:23;;;;;;;12.82;8.40;;;;;;;;;;5040226;28;20041;-76
2023/05/11 02:55:50;;;;;;;12.15;8.80;;;;;;;;;;5031537;28;20135;-75
2023/05/11 02:58:16;;;;;;;13.35;8.43;;;;;;;;;;5044999;28;20052;-75
2023/05/11 03:00:42;;;;;;;9.77;8.00;;;;;;;;;;5042816;28;20056;-76
2023/05/11 03:03:08;;;;;;;10.95;8.70;;;;;;;;;;5040882;28;20040;-76
2023/05/11 03:05:34;;;;;;;10.65;8.25;;;;;;;;;;5029906;28;20460;-75
2023/05/11 03:08:01;;;;;;;11.20;9.00;;;;;;;;;;5042321;28;20127;-76
2023/05/11 03:10:28;;;;;;;10.98;8.48;;;;;;;;;;5040757;28;20045;-76
2023/05/11 03:12:54;;;;;;;10.23;7.97;;;;;;;;;;5034689;28;20106;-76
2023/05/11 03:15:20;;;;;;;10.43;7.80;;;;;;;;;;5044822;28;20053;-76
2023/05/11 03:17:50;;;;;;;12.57;8.52;;;;;;;;;;5042125;28;20094;-76
2023/05/11 03:20:20;;;;;;;11.23;8.63;;;;;;;;;;5035971;28;20045;-76
2023/05/11 03:22:46;;;;;;;10.38;8.25;;;;;;;;;;5047586;28;20067;-76
2023/05/11 03:25:13;;;;;;;11.23;8.65;;;;;;;;;;5036192;28;20051;-76
2023/05/11 03:27:41;;;;;;;10.80;9.05;;;;;;;;;;5029878;28;20102;-76
2023/05/11 03:30:08;;;;;;;11.52;8.65;;;;;;;;;;5034035;28;20057;-76
2023/05/11 03:32:35;;;;;;;11.75;8.30;;;;;;;;;;5029500;28;20095;-76
2023/05/11 03:35:01;;;;;;;11.38;8.55;;;;;;;;;;5030409;28;20520;-75
2023/05/11 03:37:28;;;;;;;11.27;8.77;;;;;;;;;;5028909;28;20132;-76
2023/05/11 03:39:56;;;;;;;12.77;9.45;;;;;;;;;;5031995;28;20053;-76
2023/05/11 03:42:23;;;;;;;12.35;8.73;;;;;;;;;;5036857;28;20055;-76
2023/05/11 03:44:51;;;;;;;11.45;8.40;;;;;;;;;;5035575;28;20045;-76
2023/05/11 03:47:18;;;;;;;11.07;8.43;;;;;;;;;;5034375;28;20045;-76
2023/05/11 03:49:44;;;;;;;12.80;8.77;;;;;;;;;;5038267;28;20124;-76
2023/05/11 03:52:11;;;;;;;11.38;8.55;;;;;;;;;;5039039;28;20041;-76
2023/05/11 03:54:37;;;;;;;13.60;9.68;;;;;;;;;;5033620;28;21026;-75
2023/05/11 03:57:03;;;;;;;11.68;8.95;;;;;;;;;;5034736;28;20097;-76
2023/05/11 03:59:29;;;;;;;11.95;8.55;;;;;;;;;;5033193;28;20401;-75
2023/05/11 04:01:56;;;;;;;10.63;8.32;;;;;;;;;;5035216;28;20042;-76
2023/05/11 04:04:28;;;;;;;11.23;8.55;;;;;;;;;;5032181;28;20137;-75
2023/05/11 04:06:54;;;;;;;11.80;8.73;;;;;;;;;;5032753;28;20099;-75
2023/05/11 04:09:20;;;;;;;10.98;8.40;;;;;;;;;;5040762;28;20045;-75
2023/05/11 04:11:46;;;;;;;13.10;9.77;;;;;;;;;;5043877;28;20053;-75
2023/05/11 04:14:12;;;;;;;11.80;9.43;;;;;;;;;;5035326;28;20129;-75
2023/05/11 04:16:38;;;;;;;11.02;8.40;;;;;;;;;;5034637;28;20076;-75
2023/05/11 04:19:05;;;;;;;12.77;9.23;;;;;;;;;;5034623;28;20042;-75
2023/05/11 04:21:32;;;;;;;13.52;10.05;;;;;;;;;;5039065;28;20049;-76
2023/05/11 04:23:58;;;;;;;12.27;9.10;;;;;;;;;;5033036;28;20053;-75
2023/05/11 04:26:25;;;;;;;11.85;9.13;;;;;;;;;;5035668;28;20492;-76
2023/05/11 04:28:51;;;;;;;12.45;9.18;;;;;;;;;;5033748;28;20049;-76
2023/05/11 04:31:17;;;;;;;13.00;9.60;;;;;;;;;;5053164;28;20049;-75
2023/05/11 04:33:43;;;;;;;14.38;10.48;;;;;;;;;;5034693;28;20045;-75
2023/05/11 04:36:09;;;;;;;14.07;10.35;;;;;;;;;;5042089;28;20060;-76
2023/05/11 04:38:35;;;;;;;13.43;9.32;;;;;;;;;;5033211;28;20119;-75
2023/05/11 04:41:05;;;;;;;13.65;10.05;;;;;;;;;;5033000;28;20096;-76
2023/05/11 04:43:31;;;;;;;13.10;9.60;;;;;;;;;;5033980;28;20042;-76
2023/05/11 04:45:58;;;;;;;13.88;10.38;;;;;;;;;;5034713;28;20057;-75
2023/05/11 04:48:25;;;;;;;12.15;9.35;;;;;;;;;;5034153;28;20099;-75
2023/05/11 04:50:51;;;;;;;12.70;9.48;;;;;;;;;;5034496;28;20061;-76
2023/05/11 04:53:17;;;;;;;14.90;10.95;;;;;;;;;;5032108;28;20046;-76
2023/05/11 04:55:43;;;;;;;15.82;10.88;;;;;;;;;;5036288;28;20052;-76
2023/05/11 04:58:09;;;;;;;14.60;10.43;;;;;;;;;;5036620;28;20102;-75
2023/05/11 05:00:35;;;;;;;14.98;10.25;;;;;;;;;;5035752;28;20037;-76
2023/05/11 05:03:02;;;;;;;14.88;10.98;;;;;;;;;;5034679;28;20049;-76
2023/05/11 05:05:28;;;;;;;16.30;12.00;;;;;;;;;;5032346;28;20095;-76
2023/05/11 05:07:54;;;;;;;18.65;12.68;;;;;;;;;;5032324;28;20128;-75
2023/05/11 05:10:20;;;;;;;16.40;12.25;;;;;;;;;;5034872;28;20051;-76
2023/05/11 05:12:47;;;;;;;17.02;11.43;;;;;;;;;;5037146;28;20077;-75
2023/05/11 05:15:13;;;;;;;17.33;12.25;;;;;;;;;;5052398;28;20408;-75
2023/05/11 05:17:39;;;;;;;15.52;10.90;;;;;;;;;;5042708;28;20045;-76
2023/05/11 05:20:05;;;;;;;17.15;11.32;;;;;;;;;;5034142;28;20152;-75
2023/05/11 05:22:32;;;;;;;18.00;11.98;;;;;;;;;;5032754;28;20528;-76
2023/05/11 05:24:58;;;;;;;14.50;11.15;;;;;;;;;;5033718;28;20042;-76
2023/05/11 05:27:24;;;;;;;14.57;10.88;;;;;;;;;;5036303;28;20060;-76
2023/05/11 05:29:50;;;;;;;11.98;9.30;;;;;;;;;;5045805;28;20091;-75
2023/05/11 05:32:16;;;;;;;16.15;10.55;;;;;;;;;;5035773;28;20131;-75
2023/05/11 05:34:42;;;;;;;13.95;10.38;;;;;;;;;;5030187;28;20136;-76
2023/05/11 05:37:09;;;;;;;14.75;10.05;;;;;;;;;;5032347;28;20049;-77
2023/05/11 05:39:35;;;;;;;15.27;10.52;;;;;;;;;;5043671;28;20087;-77
2023/05/11 05:42:01;;;;;;;14.52;9.85;;;;;;;;;;5050868;28;20045;-77
2023/05/11 05:44:27;;;;;;;15.60;9.93;;;;;;;;;;5067743;28;20434;-77
2023/05/11 05:46:54;;;;;;;16.90;10.93;;;;;;;;;;5034933;28;20046;-76
2023/05/11 05:49:20;;;;;;;14.48;10.63;;;;;;;;;;5042093;28;20048;-76
2023/05/11 05:51:46;;;;;;;15.43;10.43;;;;;;;;;;5038259;28;20393;-75
2023/05/11 05:54:12;;;;;;;16.13;10.48;;;;;;;;;;5045305;28;20393;-75
2023/05/11 05:56:39;;;;;;;13.98;10.35;;;;;;;;;;5034660;28;20076;-75
2023/05/11 05:59:07;;;;;;;14.00;10.32;;;;;;;;;;5033600;28;20049;-76
2023/05/11 06:01:33;;;;;;;14.15;9.73;;;;;;;;;;5038159;28;20049;-76
2023/05/11 06:03:59;;;;;;;20.35;11.32;;;;;;;;;;5041818;28;20051;-76
2023/05/11 06:06:26;;;;;;;13.35;8.93;;;;;;;;;;5036319;28;20037;-75
2023/05/11 06:08:52;;;;;;;12.48;9.27;;;;;;;;;;5041067;28;20063;-75
2023/05/11 06:11:18;;;;;;;12.30;8.35;;;;;;;;;;5046877;28;20072;-75
2023/05/11 06:13:44;;;;;;;11.57;7.70;;;;;;;;;;5038080;28;20739;-76
2023/05/11 06:16:10;;;;;;;13.10;8.65;;;;;;;;;;5035725;28;20049;-75
2023/05/11 06:18:36;;;;;;;11.77;8.23;;;;;;;;;;5045997;28;20045;-75
2023/05/11 06:21:02;;;;;;;9.93;7.65;;;;;;;;;;5048526;28;20044;-75
2023/05/11 06:23:28;;;;;;;10.27;7.80;;;;;;;;;;5044843;28;20128;-75
2023/05/11 06:25:54;;;;;;;11.02;7.13;;;;;;;;;;5043863;28;20176;-75
2023/05/11 06:28:23;;;;;;;12.07;7.90;;;;;;;;;;5031061;28;20053;-75
2023/05/11 06:30:49;;;;;;;10.55;7.93;;;;;;;;;;5030920;28;20453;-75
2023/05/11 06:33:15;;;;;;;9.13;7.55;;;;;;;;;;5044778;28;20107;-75
2023/05/11 06:35:41;;;;;;;9.50;7.30;;;;;;;;;;5042091;28;20415;-75
2023/05/11 06:38:07;;;;;;;10.10;7.50;;;;;;;;;;5050282;28;20516;-76
2023/05/11 06:40:33;;;;;;;10.18;7.63;;;;;;;;;;5034218;28;20049;-76
2023/05/11 06:42:59;;;;;;;9.75;7.07;;;;;;;;;;5032261;28;20114;-76
2023/05/11 06:45:25;;;;;;;10.18;7.13;;;;;;;;;;5030232;28;20497;-76
2023/05/11 06:47:51;;;;;;;8.73;6.82;;;;;;;;;;5032324;28;20103;-75
2023/05/11 06:50:20;;;;;;;9.57;7.38;;;;;;;;;;5029794;28;20045;-75
2023/05/11 06:52:46;;;;;;;9.32;6.97;;;;;;;;;;5030536;28;20128;-75
2023/05/11 06:55:15;;;;;;;8.18;6.40;;;;;;;;;;5031088;28;20409;-75
2023/05/11 06:57:41;;;;;;;7.82;6.22;;;;;;;;;;5041630;28;20128;-75
2023/05/11 07:00:07;;;;;;;8.90;6.82;;;;;;;;;;5041147;28;20077;-75
2023/05/11 07:02:33;;;;;;;9.05;6.85;;;;;;;;;;5048429;28;20064;-75
2023/05/11 07:05:00;;;;;;;9.15;6.28;;;;;;;;;;5036039;28;20467;-75
2023/05/11 07:07:26;;;;;;;8.00;6.32;;;;;;;;;;5050830;28;20090;-75
2023/05/11 07:09:52;;;;;;;7.72;6.10;;;;;;;;;;5049273;28;20044;-75
2023/05/11 07:12:18;;;;;;;7.43;6.30;;;;;;;;;;5050633;28;20095;-75
2023/05/11 07:14:44;;;;;;;8.73;5.85;;;;;;;;;;5043532;28;20038;-75
2023/05/11 07:17:10;;;;;;;7.05;5.85;;;;;;;;;;5030154;28;20049;-75
2023/05/11 07:19:36;;;;;;;7.40;6.13;;;;;;;;;;5032632;28;20044;-75
2023/05/11 07:22:04;;;;;;;8.52;5.63;;;;;;;;;;5052130;28;20045;-75
2023/05/11 07:24:30;;;;;;;5.97;4.63;;;;;;;;;;5048940;28;20045;-75
2023/05/11 07:26:56;;;;;;;5.78;4.95;;;;;;;;;;5042878;28;20496;-75
2023/05/11 07:29:22;;;;;;;7.00;5.43;;;;;;;;;;5033004;28;20045;-75
2023/05/11 07:31:48;;;;;;;7.85;5.80;;;;;;;;;;5044973;28;20033;-75
2023/05/11 07:34:15;;;;;;;7.47;5.80;;;;;;;;;;5047694;28;20098;-76
2023/05/11 07:36:41;;;;;;;6.93;5.05;;;;;;;;;;5031029;28;20478;-75
2023/05/11 07:39:07;;;;;;;5.95;4.63;;;;;;;;;;5030206;28;20448;-75
2023/05/11 07:41:33;;;;;;;5.70;5.13;;;;;;;;;;5036671;28;20037;-76
2023/05/11 07:44:02;;;;;;;6.43;5.57;;;;;;;;;;5031686;28;20053;-76
2023/05/11 07:46:28;;;;;;;5.93;4.90;;;;;;;;;;5030833;28;20091;-77
2023/05/11 07:48:54;;;;;;;6.00;5.03;;;;;;;;;;5029612;28;20512;-76
2023/05/11 07:51:20;;;;;;;6.25;5.10;;;;;;;;;;5032640;28;20041;-76
2023/05/11 07:53:46;;;;;;;5.57;4.60;;;;;;;;;;5031415;28;20485;-76
2023/05/11 07:56:12;;;;;;;5.40;4.60;;;;;;;;;;5037178;28;20527;-76
2023/05/11 07:58:38;;;;;;;5.82;5.03;;;;;;;;;;5047979;28;20481;-75
2023/05/11 08:01:04;;;;;;;6.07;4.70;;;;;;;;;;5040250;28;20041;-75
2023/05/11 08:03:31;;;;;;;5.90;4.85;;;;;;;;;;5030203;28;20041;-75
2023/05/11 08:05:57;;;;;;;7.00;5.00;;;;;;;;;;5035839;28;20135;-75
2023/05/11 08:08:23;;;;;;;6.18;5.25;;;;;;;;;;5029276;28;20489;-75
2023/05/11 08:10:49;;;;;;;5.60;4.90;;;;;;;;;;5037320;28;20480;-75
2023/05/11 08:13:15;;;;;;;5.85;5.10;;;;;;;;;;5050040;28;20052;-75
2023/05/11 08:15:41;;;;;;;5.63;5.03;;;;;;;;;;5041733;28;20095;-77
2023/05/11 08:18:07;;;;;;;4.03;3.58;;;;;;;;;;5031624;28;20128;-76
2023/05/11 08:20:33;;;;;;;3.80;3.50;;;;;;;;;;5031952;28;20047;-76
2023/05/11 08:22:59;;;;;;;3.42;3.13;;;;;;;;;;5030323;28;20044;-77
2023/05/11 08:25:25;;;;;;;3.95;3.65;;;;;;;;;;5028662;28;20128;-77
2023/05/11 08:27:51;;;;;;;3.58;3.28;;;;;;;;;;5031554;28;20060;-76
2023/05/11 08:30:18;;;;;;;3.63;3.33;;;;;;;;;;5033799;28;20041;-76
2023/05/11 08:32:44;;;;;;;3.80;3.50;;;;;;;;;;5041623;28;20048;-76
2023/05/11 08:35:10;;;;;;;3.80;3.50;;;;;;;;;;5032860;28;20049;-75
2023/05/11 08:37:36;;;;;;;3.50;3.20;;;;;;;;;;5031095;28;20053;-75
2023/05/11 08:40:02;;;;;;;4.38;3.80;;;;;;;;;;5033292;28;20056;-77
2023/05/11 08:42:33;;;;;;;3.60;3.30;;;;;;;;;;5035957;28;20059;-76
2023/05/11 08:44:59;;;;;;;3.60;3.30;;;;;;;;;;5033649;28;20041;-76
2023/05/11 08:47:26;;;;;;;4.80;3.75;;;;;;;;;;5033278;28;20464;-76
2023/05/11 08:49:52;;;;;;;4.90;4.43;;;;;;;;;;5031789;28;20056;-76
2023/05/11 08:52:18;;;;;;;5.20;4.45;;;;;;;;;;5045082;28;20056;-76
2023/05/11 08:54:45;;;;;;;5.80;4.65;;;;;;;;;;5052749;28;20104;-76
2023/05/11 08:57:13;;;;;;;5.03;4.53;;;;;;;;;;5052828;28;20523;-76
2023/05/11 08:59:40;;;;;;;5.72;5.03;;;;;;;;;;5045236;28;20515;-76
2023/05/11 09:02:06;;;;;;;5.00;4.50;;;;;;;;;;5044447;28;20041;-75
2023/05/11 09:04:32;;;;;;;6.05;4.90;;;;;;;;;;5041094;28;20053;-76
2023/05/11 09:06:59;;;;;;;5.60;5.10;;;;;;;;;;5036030;28;20120;-76
2023/05/11 09:09:25;;;;;;;6.18;5.57;;;;;;;;;;5034018;28;20052;-76
2023/05/11 09:11:51;;;;;;;5.35;4.85;;;;;;;;;;5037562;28;20041;-76
2023/05/11 09:14:17;;;;;;;5.82;5.22;;;;;;;;;;5053903;28;20044;-76
2023/05/11 09:16:43;;;;;;;7.72;6.20;;;;;;;;;;5052149;28;20041;-76
2023/05/11 09:19:13;;;;;;;6.70;6.00;;;;;;;;;;5031480;28;20064;-76
2023/05/11 09:21:39;;;;;;;7.22;6.53;;;;;;;;;;5046842;28;20049;-76
2023/05/11 09:24:05;;;;;;;7.47;6.30;;;;;;;;;;5035936;28;20044;-76
2023/05/11 09:26:33;;;;;;;6.82;6.13;;;;;;;;;;5051851;28;20041;-77
2023/05/11 09:28:59;;;;;;;6.93;6.03;;;;;;;;;;5035547;28;20143;-76
2023/05/11 09:31:44;;;;;;;8.07;6.80;;;;;;;;;;5032504;28;20049;-76
2023/05/11 09:34:16;;;;;;;6.47;5.88;;;;;;;;;;5036465;28;20434;-76
2023/05/11 09:36:43;;;;;;;8.05;6.40;;;;;;;;;;5039930;28;20626;-76
2023/05/11 09:39:09;;;;;;;7.75;6.55;;;;;;;;;;5033482;28;20489;-77
2023/05/11 09:41:36;;;;;;;7.25;6.55;;;;;;;;;;5032526;28;20046;-77
2023/05/11 09:44:05;;;;;;;7.95;6.70;;;;;;;;;;5053566;28;20408;-77
2023/05/11 09:46:31;;;;;;;7.78;6.72;;;;;;;;;;5041597;28;20045;-77
2023/05/11 09:48:59;;;;;;;7.78;6.85;;;;;;;;;;5030858;28;20048;-76
2023/05/11 09:51:30;;;;;;;8.63;7.15;;;;;;;;;;5031235;28;20076;-77
2023/05/11 09:53:57;;;;;;;8.43;7.18;;;;;;;;;;5048455;28;20048;-77
2023/05/11 09:56:23;;;;;;;8.10;7.30;;;;;;;;;;5052874;28;20498;-77
2023/05/11 09:58:53;;;;;;;9.00;6.90;;;;;;;;;;5037797;28;20048;-77
2023/05/11 10:01:31;;;;;;;9.38;7.93;;;;;;;;;;5046645;28;20045;-77
2023/05/11 10:03:58;;;;;;;7.85;6.95;;;;;;;;;;5039147;28;20045;-77
2023/05/11 10:06:24;;;;;;;7.95;6.95;;;;;;;;;;5031065;28;20061;-76
2023/05/11 10:08:51;;;;;;;8.77;6.90;;;;;;;;;;5046858;28;20461;-75
2023/05/11 10:11:17;;;;;;;7.57;6.80;;;;;;;;;;5040521;28;20449;-75
2023/05/11 10:13:44;;;;;;;8.05;6.60;;;;;;;;;;5045852;28;20365;-75
2023/05/11 10:16:12;;;;;;;8.18;7.22;;;;;;;;;;5049134;28;20048;-75
2023/05/11 10:18:39;;;;;;;8.90;7.35;;;;;;;;;;5030681;28;20064;-76
2023/05/11 10:21:05;;;;;;;10.10;7.18;;;;;;;;;;5032160;28;20057;-76
2023/05/11 10:23:32;;;;;;;8.07;7.18;;;;;;;;;;5030169;28;20128;-76
2023/05/11 10:26:00;;;;;;;9.27;8.00;;;;;;;;;;5031194;28;20116;-76
2023/05/11 10:28:26;;;;;;;8.27;7.40;;;;;;;;;;5041549;28;20044;-76
2023/05/11 10:30:52;;;;;;;8.48;7.07;;;;;;;;;;5036634;28;20544;-75
2023/05/11 10:33:19;;;;;;;8.80;7.90;;;;;;;;;;5037569;28;20048;-76
2023/05/11 10:35:45;;;;;;;9.77;8.77;;;;;;;;;;5040206;28;20052;-75
2023/05/11 10:38:12;;;;;;;9.10;7.97;;;;;;;;;;5047421;28;20515;-76
2023/05/11 10:40:40;;;;;;;11.13;9.20;;;;;;;;;;5050072;28;20539;-76
2023/05/11 10:43:18;;;;;;;11.20;9.35;;;;;;;;;;5040492;28;20065;-75
2023/05/11 10:45:47;;;;;;;11.13;9.55;;;;;;;;;;5032249;28;20041;-76
2023/05/11 10:48:32;;;;;;;11.27;9.40;;;;;;;;;;5031169;28;20132;-75
2023/05/11 10:51:10;;;;;;;11.27;9.02;;;;;;;;;;5034297;28;20045;-76
2023/05/11 10:53:35;;;;;;;9.07;8.00;;;;;;;;;;5043947;28;20041;-75
2023/05/11 10:56:05;;;;;;;11.02;8.38;;;;;;;;;;5033490;28;20149;-75
2023/05/11 10:58:41;;;;;;;8.75;7.80;;;;;;;;;;5035643;28;20048;-76
2023/05/11 11:01:22;;;;;;;7.68;6.82;;;;;;;;;;5031378;28;20484;-76
2023/05/11 11:04:04;;;;;;;7.40;6.55;;;;;;;;;;5039547;28;20432;-76
2023/05/11 11:06:30;;;;;;;6.65;5.95;;;;;;;;;;5041264;28;20142;-76
2023/05/11 11:09:00;;;;;;;6.80;6.10;;;;;;;;;;5050829;28;20055;-76
2023/05/11 11:11:30;;;;;;;7.25;6.55;;;;;;;;;;5028297;28;20091;-76
2023/05/11 11:13:57;;;;;;;6.88;6.03;;;;;;;;;;5032651;28;20437;-76
2023/05/11 11:16:24;;;;;;;5.60;5.05;;;;;;;;;;5039159;28;20182;-76
2023/05/11 11:18:51;;;;;;;5.47;4.85;;;;;;;;;;5034066;28;20049;-76
2023/05/11 11:21:36;;;;;;;6.07;4.90;;;;;;;;;;5033391;28;20045;-76
2023/05/11 11:24:02;;;;;;;5.10;4.60;;;;;;;;;;5030745;28;20454;-78
2023/05/11 11:27:00;;;;;;;4.72;4.32;;;;;;;;;;5029351;28;20115;-76
2023/05/11 11:29:27;;;;;;;5.22;4.82;;;;;;;;;;5010464;28;20049;-76
2023/05/11 11:31:53;;;;;;;5.20;4.70;;;;;;;;;;5036647;28;20041;-76
2023/05/11 11:34:28;;;;;;;5.38;4.90;;;;;;;;;;5030103;28;20095;-76
2023/05/11 11:36:54;;;;;;;4.90;4.40;;;;;;;;;;5029580;28;20041;-77
2023/05/11 11:39:39;;;;;;;5.20;4.70;;;;;;;;;;5032407;28;20049;-77
2023/05/11 11:42:06;;;;;;;6.63;5.15;;;;;;;;;;5031547;28;20100;-77
2023/05/11 11:44:36;;;;;;;6.13;5.53;;;;;;;;;;5032632;28;20045;-73
2023/05/11 11:47:16;;;;;;;5.80;5.20;;;;;;;;;;5032046;28;20107;-76
2023/05/11 11:49:46;;;;;;;5.25;4.75;;;;;;;;;;5030726;28;20037;-76
2023/05/11 11:52:32;;;;;;;5.75;5.20;;;;;;;;;;5031576;28;20072;-77
2023/05/11 11:54:59;;;;;;;6.07;5.28;;;;;;;;;;5029679;28;20052;-76
2023/05/11 11:57:31;;;;;;;5.97;5.38;;;;;;;;;;5031779;28;20053;-76
2023/05/11 12:00:10;;;;;;;6.20;5.60;;;;;;;;;;5031169;28;20539;-77
2023/05/11 12:02:39;;;;;;;24.15;8.65;;;;;;;;;;5031543;28;20057;-76
2023/05/11 12:05:13;;;;;;;6.50;5.28;;;;;;;;;;5035668;28;20072;-76
2023/05/11 12:07:42;;;;;;;5.75;5.05;;;;;;;;;;5032701;28;20049;-76
2023/05/11 12:10:10;;;;;;;5.53;5.03;;;;;;;;;;5055639;28;20460;-76
2023/05/11 12:12:37;;;;;;;62.97;11.27;;;;;;;;;;5037269;28;20537;-76
2023/05/11 12:15:05;;;;;;;13.60;5.28;;;;;;;;;;5038726;28;20037;-76
2023/05/11 12:17:33;;;;;;;19.52;6.63;;;;;;;;;;5033202;28;20069;-78
2023/05/11 12:20:15;;;;;;;142.25;22.33;;;;;;;;;;5035517;28;20081;-76
2023/05/11 12:22:43;;;;;;;7.72;5.63;;;;;;;;;;5052960;28;20045;-78
2023/05/11 12:25:11;;;;;;;5.88;5.22;;;;;;;;;;5043704;28;20114;-76
2023/05/11 12:27:46;;;;;;;5.53;5.13;;;;;;;;;;5048524;28;20042;-77
2023/05/11 12:30:23;;;;;;;5.60;5.10;;;;;;;;;;5031937;28;20088;-77
2023/05/11 12:32:49;;;;;;;6.30;5.70;;;;;;;;;;5037769;28;20489;-77
2023/05/11 12:35:21;;;;;;;5.97;5.25;;;;;;;;;;5033958;28;20120;-77
2023/05/11 12:37:47;;;;;;;6.18;5.57;;;;;;;;;;5034344;28;20440;-77
2023/05/11 12:40:13;;;;;;;7.68;6.97;;;;;;;;;;5035334;28;20052;-77
2023/05/11 12:42:48;;;;;;;8.32;7.53;;;;;;;;;;5046903;28;20559;-77
2023/05/11 12:45:15;;;;;;;13.75;7.90;;;;;;;;;;5047991;28;20128;-77
2023/05/11 12:47:41;;;;;;;11.05;7.50;;;;;;;;;;5035270;28;20045;-77
2023/05/11 12:50:07;;;;;;;7.68;6.97;;;;;;;;;;5034197;28;20091;-77
2023/05/11 12:52:33;;;;;;;8.00;7.30;;;;;;;;;;5032671;28;20046;-76
2023/05/11 12:54:59;;;;;;;8.45;7.63;;;;;;;;;;5039119;28;20132;-77
2023/05/11 12:57:30;;;;;;;8.60;7.80;;;;;;;;;;5045573;28;20057;-77
2023/05/11 13:00:16;;;;;;;10.23;8.40;;;;;;;;;;5033983;28;20045;-77
2023/05/11 13:02:50;;;;;;;9.88;8.93;;;;;;;;;;5032756;28;20048;-77
2023/05/11 13:05:18;;;;;;;10.50;9.50;;;;;;;;;;5033218;28;20042;-76
2023/05/11 13:07:44;;;;;;;10.32;9.32;;;;;;;;;;5032361;28;20094;-77
2023/05/11 13:10:11;;;;;;;10.40;9.30;;;;;;;;;;5036619;28;20041;-76
2023/05/11 13:12:47;;;;;;;9.68;8.77;;;;;;;;;;5039952;28;20195;-77
2023/05/11 13:15:13;;;;;;;10.35;9.35;;;;;;;;;;5035162;28;20056;-77
2023/05/11 13:17:40;;;;;;;10.85;9.85;;;;;;;;;;5034194;28;20132;-77
2023/05/11 13:20:23;;;;;;;10.27;9.25;;;;;;;;;;5032186;28;20469;-77
2023/05/11 13:22:50;;;;;;;10.30;9.18;;;;;;;;;;5033848;28;20045;-77
2023/05/11 13:25:16;;;;;;;10.40;9.38;;;;;;;;;;5031114;28;20037;-76
2023/05/11 13:27:43;;;;;;;10.65;9.63;;;;;;;;;;5034589;28;20052;-77
2023/05/11 13:30:09;;;;;;;10.32;9.30;;;;;;;;;;5031662;28;20041;-77
2023/05/11 13:32:35;;;;;;;10.02;9.02;;;;;;;;;;5031995;28;20103;-76
2023/05/11 13:35:05;;;;;;;10.05;8.93;;;;;;;;;;5033821;28;20042;-77
2023/05/11 13:37:31;;;;;;;12.23;9.30;;;;;;;;;;5038970;28;20491;-77
2023/05/11 13:39:58;;;;;;;9.45;8.55;;;;;;;;;;5050306;28;20041;-77
2023/05/11 13:42:24;;;;;;;10.85;9.75;;;;;;;;;;5030798;28;20063;-77
2023/05/11 13:44:50;;;;;;;11.20;9.25;;;;;;;;;;5037129;28;20451;-77
2023/05/11 13:47:16;;;;;;;10.18;9.18;;;;;;;;;;5030249;28;20045;-77
2023/05/11 13:49:42;;;;;;;9.48;8.57;;;;;;;;;;5031476;28;20504;-77
2023/05/11 13:52:08;;;;;;;9.07;8.02;;;;;;;;;;5035120;28;20488;-77
2023/05/11 13:54:34;;;;;;;9.35;8.40;;;;;;;;;;5050869;28;20077;-77
2023/05/11 13:57:01;;;;;;;7.70;6.90;;;;;;;;;;5050533;28;20095;-75
2023/05/11 13:59:27;;;;;;;8.70;7.13;;;;;;;;;;5035980;28;20478;-77
2023/05/11 14:01:53;;;;;;;7.65;6.85;;;;;;;;;;5031566;28;20037;-77
2023/05/11 14:04:19;;;;;;;7.75;7.05;;;;;;;;;;5035449;28;20494;-76
2023/05/11 14:06:45;;;;;;;10.65;7.50;;;;;;;;;;5049214;28;20129;-77
2023/05/11 14:09:11;;;;;;;6.72;6.03;;;;;;;;;;5033144;28;20072;-77
2023/05/11 14:11:37;;;;;;;8.43;6.15;;;;;;;;;;5051072;28;20128;-77
2023/05/11 14:14:03;;;;;;;6.47;5.75;;;;;;;;;;5048485;28;20243;-77
2023/05/11 14:16:30;;;;;;;6.13;5.53;;;;;;;;;;5047436;28;20048;-77
2023/05/11 14:18:56;;;;;;;6.70;5.65;;;;;;;;;;5040968;28;20048;-77
2023/05/11 14:21:22;;;;;;;6.10;5.50;;;;;;;;;;5035127;28;20040;-77
2023/05/11 14:23:48;;;;;;;6.20;5.60;;;;;;;;;;5045441;28;20042;-77
2023/05/11 14:26:14;;;;;;;6.57;5.75;;;;;;;;;;5040441;28;20041;-77
2023/05/11 14:28:41;;;;;;;10.43;5.38;;;;;;;;;;5049280;28;20045;-77
2023/05/11 14:31:07;;;;;;;7.97;6.35;;;;;;;;;;5046704;28;20126;-76
2023/05/11 14:33:33;;;;;;;7.70;5.75;;;;;;;;;;5045664;28;20480;-77
2023/05/11 14:35:59;;;;;;;6.95;6.03;;;;;;;;;;5048758;28;20492;-77
2023/05/11 14:38:25;;;;;;;6.65;6.05;;;;;;;;;;5042073;28;20053;-76